• Join FlightAware (Why Join?)
  • Login
  • US Flag 
07:58AM EDT


 

Airport Tracker/Info


-or-


 

Live Flight TrackerFlight Track Log ✈ GJS6221 ✈ 08-Aug-2013 ✈ CYUL - KLGA

Flight Track Log - Related Links

Times and Time Zones

All times are in EDT time to prevent confusion due to time zone crossing. See the GJS6221 flight status page for this flight to view local times or setup timezone preferences in your user account.

Time Position Orientation Groundspeed Altitude Reporting Facility
EDT Latitude Longitude Course Direction KTS MPH feet Rate Location/Type
07:23AM 45.4500 -73.7167 175° South 140 161 1,100  Level Montreal Center
07:24AM 45.4000 -73.7667 215° Southwest 190 219 3,100 2,100 Climbing Montreal Center
07:25AM 45.3500 -73.8167 215° Southwest 210 242 5,400 2,400 Climbing Montreal Center
07:26AM 45.2833 -73.8000 170° South 260 299 8,000 2,640 Climbing Montreal Center
07:27AM 45.2000 -73.8000 180° South 270 311 10,700 2,520 Climbing Montreal Center
07:28AM 45.1167 -73.8167 188° South 290 334 13,100 2,400 Climbing Montreal Center
07:29AM 44.5322 -74.0999 175° South  Level FlightAware Approximate
07:29AM 45.0500 -73.8167 180° South 300 345 15,500  Level Montreal Center
07:30AM 44.9500 -73.8167 180° South 320 368 17,400 1,800 Climbing Montreal Center
07:31AM 44.8667 -73.8167 180° South 340 391 19,200 1,800 Climbing Montreal Center
07:32AM 44.8219 -73.8183 182° South 343 395 20,200 1,860 Climbing Boston Center
07:33AM 44.7219 -73.8161 179° South 354 407 22,200 1,920 Climbing Boston Center
07:34AM 44.6197 -73.8194 181° South 361 415 24,100 1,920 Climbing Boston Center
07:35AM 44.5156 -73.8169 179° South 368 423 26,000 1,620 Climbing Boston Center
07:36AM 44.4136 -73.8175 180° South 368 423 27,400 1,320 Climbing Boston Center
07:37AM 44.3053 -73.8150 179° South 373 429 28,700 1,200 Climbing Boston Center
07:38AM 44.2178 -73.8161 181° South 385 443 29,900 600 Climbing Boston Center
07:39AM 44.0822 -73.8158 180° South 398 458 30,000  Climbing Boston Center
07:40AM 43.9697 -73.8133 179° South 406 467 30,000  Level Boston Center
07:41AM 43.8844 -73.8111 179° South 417 480 30,000  Level Boston Center
07:42AM 43.7531 -73.8111 180° South 417 480 30,000  Level Boston Center
07:43AM 43.6322 -73.8142 181° South 406 467 30,000  Level Boston Center
07:44AM 43.5258 -73.8144 180° South 401 461 30,000  Level Boston Center
07:45AM 43.4156 -73.8119 179° South 396 456 30,000  Level Boston Center
07:46AM 43.3133 -73.8097 179° South 401 461 30,000 -360 Level Boston Center
07:47AM 43.2028 -73.8072 179° South 401 461 29,300 -1,140 Descending Boston Center
07:48AM 43.0903 -73.8106 181° South 401 461 27,800 -1,440 Descending Boston Center
07:49AM 42.9800 -73.8081 179° South 401 461 26,500 -1,320 Descending Boston Center
07:50AM 42.8714 -73.8083 180° South 401 461 25,300 -1,260 Descending Boston Center
07:51AM 42.7631 -73.8061 179° South 401 461 24,100 -1,200 Descending Boston Center
07:52AM 42.6653 -73.7897 173° South 388 447 23,000 -1,080 Descending Boston Center
07:53AM 42.5553 -73.7675 172° South 370 426 22,000 -1,020 Descending Boston Center
07:54AM 42.4533 -73.7486 172° South 365 420 21,000 -1,080 Descending Boston Center
07:55AM 42.3556 -73.7269 171° South 365 420 20,000 -1,020 Descending Boston Center
07:56AM 42.2578 -73.7053 171° South 365 420 19,000 -960 Descending Boston Center
07:57AM 42.1603 -73.6836 171° South 365 420 18,000 -480 Descending Boston Center
07:58AM 42.0517 -73.6928 184° South 345 397 18,000  Level Boston Center
07:59AM 41.9703 -73.7050 186° South 339 390 18,000 -180 Level Boston Center
08:00AM 41.8639 -73.7225 187° South 339 390 17,700 -960 Descending Boston Center
08:01AM 41.7844 -73.7347 187° South 334 384 16,200 -1,560 Descending Boston Center
08:02AM 41.6883 -73.7494 187° South 326 375 14,600 -1,560 Descending Boston Center
08:03AM 41.6092 -73.7589 185° South 321 369 13,100 -1,620 Descending Boston Center
08:04AM 41.5500 -73.7667 186° South 304 350 12,200 -1,680 Descending New York TRACON
08:05AM 41.4833 -73.7833 191° South 300 345 10,800 -1,560 Descending New York TRACON
08:06AM 41.4000 -73.7833 180° South 296 341 9,300 -1,260 Descending New York TRACON
08:07AM 41.3167 -73.7833 180° South 279 321 8,300 -960 Descending New York TRACON
08:08AM 41.2500 -73.7167 143° Southeast 283 326 7,400 -1,260 Descending New York TRACON
08:09AM 41.1833 -73.6833 159° South 283 326 5,800 -1,560 Descending New York TRACON
08:10AM 41.1167 -73.6667 169° South 273 314 4,300 -900 Descending New York TRACON
08:11AM 41.0500 -73.6667 180° South 252 290 4,000 -180 Descending New York TRACON
08:12AM 40.9833 -73.7000 201° Southwest 194 223 4,000 -180 Level New York TRACON
08:13AM 40.9500 -73.7333 217° Southwest 172 198 3,700 -600 Descending New York TRACON
08:14AM 40.9167 -73.7667 217° Southwest 150 173 2,900 -840 Descending New York TRACON
08:15AM 40.8833 -73.8000 217° Southwest 149 171 2,200 -780 Descending New York TRACON
08:16AM 40.8500 -73.8167 201° Southwest 144 166 1,400 -780 Descending New York TRACON
08:17AM 40.8167 -73.8500 217° Southwest 131 151 700 -720 Descending New York TRACON
08:19AM 40.7772 -73.8726 180° South  Level Estimated
08:26AM 40.7772 -73.8726 180° South  Level Estimated
08:27AM 40.7772 -73.8726 180° South  Level Estimated